createdAt,value
2022-11-19T00:00:02.090Z,24.10
2022-11-19T00:01:02.070Z,24.00
2022-11-19T00:02:02.178Z,25.70
2022-11-19T00:03:02.017Z,24.60
2022-11-19T00:04:01.992Z,23.50
2022-11-19T00:05:01.970Z,24.00
2022-11-19T00:06:01.938Z,24.20
2022-11-19T00:07:02.147Z,24.20
2022-11-19T00:08:01.910Z,24.80
2022-11-19T00:09:01.876Z,26.00
2022-11-19T00:10:01.839Z,25.10
2022-11-19T00:11:05.335Z,23.20
2022-11-19T00:12:01.790Z,23.80
2022-11-19T00:13:01.770Z,24.40
2022-11-19T00:14:01.751Z,25.20
2022-11-19T00:15:01.716Z,23.60
2022-11-19T00:16:01.690Z,24.40
2022-11-19T00:17:01.671Z,23.10
2022-11-19T00:18:01.643Z,25.50
2022-11-19T00:19:01.618Z,23.30
2022-11-19T00:20:01.594Z,23.50
2022-11-19T00:21:01.567Z,23.00
2022-11-19T00:22:01.539Z,24.70
2022-11-19T00:23:01.539Z,24.60
2022-11-19T00:24:01.488Z,26.50
2022-11-19T00:25:01.469Z,25.20
2022-11-19T00:26:01.437Z,26.50
2022-11-19T00:27:01.418Z,23.80
2022-11-19T00:28:01.389Z,26.00
2022-11-19T00:29:01.371Z,25.50
2022-11-19T00:30:01.349Z,26.90
2022-11-19T00:31:01.313Z,25.60
2022-11-19T00:32:01.294Z,26.20
2022-11-19T00:33:01.275Z,28.20
2022-11-19T00:34:01.243Z,25.90
2022-11-19T00:35:01.227Z,24.40
2022-11-19T00:36:01.191Z,25.60
2022-11-19T00:37:01.173Z,24.50
2022-11-19T00:38:01.169Z,27.40
2022-11-19T00:39:01.187Z,27.10
2022-11-19T00:40:01.092Z,27.50
2022-11-19T00:41:01.071Z,26.80
2022-11-19T00:42:01.038Z,25.60
2022-11-19T00:43:01.015Z,24.10
2022-11-19T00:44:00.991Z,25.90
2022-11-19T00:45:00.969Z,25.70
2022-11-19T00:46:00.941Z,26.20
2022-11-19T00:47:00.915Z,26.50
2022-11-19T00:48:00.888Z,26.80
2022-11-19T00:49:00.875Z,26.10
2022-11-19T00:50:00.834Z,26.30
2022-11-19T00:51:00.815Z,25.70
2022-11-19T00:52:00.786Z,25.90
2022-11-19T00:53:00.757Z,25.80
2022-11-19T00:54:00.736Z,26.20
2022-11-19T00:55:00.729Z,25.60
2022-11-19T00:56:00.685Z,28.70
2022-11-19T00:57:00.666Z,25.10
2022-11-19T00:58:00.638Z,25.20
2022-11-19T00:59:00.622Z,27.30
2022-11-19T01:00:00.582Z,26.90
2022-11-19T01:01:00.633Z,27.80
2022-11-19T01:02:00.539Z,27.10
2022-11-19T01:03:00.514Z,29.00
2022-11-19T01:04:00.485Z,26.80
2022-11-19T01:05:00.468Z,28.00
2022-11-19T01:06:00.438Z,28.60
2022-11-19T01:07:00.455Z,27.20
2022-11-19T01:08:00.405Z,29.00
2022-11-19T01:09:00.363Z,28.70
2022-11-19T01:10:00.332Z,29.20
2022-11-19T01:11:00.334Z,28.10
2022-11-19T01:12:00.283Z,27.70
2022-11-19T01:13:00.257Z,29.40
2022-11-19T01:14:00.228Z,30.60
2022-11-19T01:15:00.211Z,28.10
2022-11-19T01:16:00.188Z,28.30
2022-11-19T01:17:00.155Z,28.00
2022-11-19T01:18:00.129Z,29.30
2022-11-19T01:19:00.109Z,30.60
2022-11-19T01:20:00.167Z,30.70
2022-11-19T01:21:00.054Z,28.50
2022-11-19T01:22:00.032Z,31.30
2022-11-19T01:23:00.008Z,30.70
2022-11-19T01:23:59.974Z,30.10
2022-11-19T01:24:59.958Z,29.20
2022-11-19T01:25:59.926Z,30.60
2022-11-19T01:26:59.920Z,27.40
2022-11-19T01:27:59.882Z,28.00
2022-11-19T01:28:59.853Z,31.00
2022-11-19T01:29:59.826Z,30.30
2022-11-19T01:30:59.800Z,31.80
2022-11-19T01:31:59.775Z,30.60
2022-11-19T01:32:59.747Z,33.00
2022-11-19T01:33:59.724Z,30.60
2022-11-19T01:34:59.698Z,31.80
2022-11-19T01:35:59.678Z,30.80
2022-11-19T01:36:59.655Z,32.70
2022-11-19T01:37:59.623Z,31.70
2022-11-19T01:38:59.599Z,30.70
2022-11-19T01:39:59.570Z,29.80
2022-11-19T01:40:59.545Z,31.10
2022-11-19T01:41:59.515Z,31.80
2022-11-19T01:42:59.519Z,31.70
2022-11-19T01:43:59.474Z,32.30
2022-11-19T01:44:59.447Z,30.10
2022-11-19T01:45:59.418Z,30.80
2022-11-19T01:46:59.396Z,31.10
2022-11-19T01:47:59.365Z,29.20
2022-11-19T01:48:59.342Z,32.20
2022-11-19T01:49:59.312Z,31.00
2022-11-19T01:50:59.297Z,32.20
2022-11-19T01:51:59.261Z,32.10
2022-11-19T01:52:59.251Z,31.10
2022-11-19T01:53:59.214Z,30.80
2022-11-19T01:54:59.188Z,29.50
2022-11-19T01:55:59.163Z,30.60
2022-11-19T01:56:59.138Z,31.30
2022-11-19T01:57:59.110Z,30.80
2022-11-19T01:58:59.108Z,33.10
2022-11-19T01:59:59.055Z,31.80
2022-11-19T02:00:59.082Z,30.00
2022-11-19T02:01:59.007Z,33.30
2022-11-19T02:02:58.987Z,31.60
2022-11-19T02:03:58.956Z,31.30
2022-11-19T02:04:58.938Z,34.20
2022-11-19T02:05:58.909Z,32.80
2022-11-19T02:06:58.931Z,34.90
2022-11-19T02:07:58.854Z,30.50
2022-11-19T02:08:58.830Z,32.00
2022-11-19T02:09:58.807Z,34.90
2022-11-19T02:10:58.781Z,34.20
2022-11-19T02:11:58.752Z,32.90
2022-11-19T02:12:58.732Z,30.90
2022-11-19T02:13:58.705Z,32.90
2022-11-19T02:14:58.709Z,34.30
2022-11-19T02:15:58.648Z,31.80
2022-11-19T02:16:58.634Z,31.50
2022-11-19T02:17:58.598Z,33.50
2022-11-19T02:18:58.581Z,31.80
2022-11-19T02:19:58.546Z,32.10
2022-11-19T02:20:58.522Z,31.70
2022-11-19T02:21:58.499Z,32.20
2022-11-19T02:22:58.474Z,32.10
2022-11-19T02:23:58.446Z,30.80
2022-11-19T02:24:58.423Z,29.70
2022-11-19T02:25:58.394Z,29.40
2022-11-19T02:26:58.369Z,33.80
2022-11-19T02:27:58.341Z,34.50
2022-11-19T02:28:58.319Z,35.30
2022-11-19T02:29:58.293Z,32.40
2022-11-19T02:30:58.290Z,31.00
2022-11-19T02:31:58.236Z,32.70
2022-11-19T02:32:58.216Z,32.90
2022-11-19T02:33:58.186Z,32.10
2022-11-19T02:34:58.166Z,31.50
2022-11-19T02:35:58.142Z,32.10
2022-11-19T02:36:58.117Z,33.40
2022-11-19T02:37:58.086Z,34.20
2022-11-19T02:38:58.063Z,31.70
2022-11-19T02:39:58.033Z,33.60
2022-11-19T02:40:58.011Z,31.70
2022-11-19T02:41:57.984Z,32.60
2022-11-19T02:42:57.963Z,31.90
2022-11-19T02:43:57.935Z,31.50
2022-11-19T02:44:57.906Z,33.90
2022-11-19T02:45:57.877Z,31.20
2022-11-19T02:46:57.879Z,32.80
2022-11-19T02:47:57.847Z,33.40
2022-11-19T02:48:57.807Z,32.40
2022-11-19T02:49:57.778Z,36.50
2022-11-19T02:50:57.754Z,33.70
2022-11-19T02:51:57.728Z,33.30
2022-11-19T02:52:57.708Z,32.20
2022-11-19T02:53:57.683Z,33.50
2022-11-19T02:54:57.655Z,32.50
2022-11-19T02:55:57.623Z,31.20
2022-11-19T02:56:57.601Z,32.80
2022-11-19T02:57:57.578Z,33.90
2022-11-19T02:58:57.551Z,32.50
2022-11-19T02:59:57.530Z,31.50
2022-11-19T03:00:57.620Z,32.30
2022-11-19T03:01:57.468Z,35.10
2022-11-19T03:02:57.475Z,33.50
2022-11-19T03:03:57.417Z,34.40
2022-11-19T03:04:57.397Z,33.10
2022-11-19T03:05:57.382Z,33.50
2022-11-19T03:06:57.377Z,32.90
2022-11-19T03:07:57.315Z,32.70
2022-11-19T03:08:57.298Z,32.80
2022-11-19T03:09:57.266Z,35.00
2022-11-19T03:10:57.243Z,34.60
2022-11-19T03:11:57.214Z,31.80
2022-11-19T03:12:57.195Z,32.40
2022-11-19T03:13:57.169Z,34.80
2022-11-19T03:14:57.140Z,32.70
2022-11-19T03:15:57.110Z,33.70
2022-11-19T03:16:57.093Z,30.90
2022-11-19T03:17:57.064Z,34.20
2022-11-19T03:18:57.057Z,36.00
2022-11-19T03:19:57.008Z,33.30
2022-11-19T03:20:56.983Z,33.40
2022-11-19T03:21:56.960Z,34.60
2022-11-19T03:22:56.935Z,31.60
2022-11-19T03:23:56.963Z,34.30
2022-11-19T03:24:56.880Z,33.80
2022-11-19T03:25:56.861Z,33.60
2022-11-19T03:26:56.836Z,30.60
2022-11-19T03:27:56.806Z,35.30
2022-11-19T03:28:56.782Z,35.00
2022-11-19T03:29:56.751Z,33.00
2022-11-19T03:30:56.736Z,33.60
2022-11-19T03:31:56.709Z,34.80
2022-11-19T03:32:56.688Z,33.30
2022-11-19T03:33:56.651Z,34.10
2022-11-19T03:34:56.645Z,33.00
2022-11-19T03:35:56.599Z,33.90
2022-11-19T03:36:56.573Z,32.80
2022-11-19T03:37:56.548Z,34.00
2022-11-19T03:38:56.526Z,34.50
2022-11-19T03:39:56.493Z,31.40
2022-11-19T03:40:56.477Z,34.00
2022-11-19T03:41:56.445Z,36.10
2022-11-19T03:42:56.422Z,31.50
2022-11-19T03:43:56.395Z,33.80
2022-11-19T03:44:56.378Z,31.30
2022-11-19T03:45:56.343Z,34.30
2022-11-19T03:46:56.322Z,33.90
2022-11-19T03:47:56.291Z,32.50
2022-11-19T03:48:56.268Z,33.10
2022-11-19T03:49:56.237Z,34.70
2022-11-19T03:50:56.236Z,34.20
2022-11-19T03:51:56.187Z,35.10
2022-11-19T03:52:58.776Z,34.10
2022-11-19T03:53:56.140Z,33.10
2022-11-19T03:54:56.110Z,33.10
2022-11-19T03:55:56.088Z,32.60
2022-11-19T03:56:56.061Z,32.80
2022-11-19T03:57:56.036Z,34.10
2022-11-19T03:58:56.013Z,32.90
2022-11-19T03:59:55.981Z,31.70
2022-11-19T04:00:55.962Z,32.60
2022-11-19T04:01:55.971Z,33.70
2022-11-19T04:02:55.912Z,35.50
2022-11-19T04:03:55.882Z,32.50
2022-11-19T04:04:55.861Z,33.60
2022-11-19T04:05:55.832Z,33.50
2022-11-19T04:06:55.903Z,34.00
2022-11-19T04:07:55.777Z,32.60
2022-11-19T04:08:55.751Z,32.80
2022-11-19T04:09:55.730Z,32.00
2022-11-19T04:10:55.703Z,30.60
2022-11-19T04:11:55.676Z,32.70
2022-11-19T04:12:55.659Z,35.30
2022-11-19T04:13:55.624Z,32.50
2022-11-19T04:14:55.606Z,31.40
2022-11-19T04:15:55.592Z,30.30
2022-11-19T04:16:55.549Z,33.00
2022-11-19T04:17:55.521Z,33.40
2022-11-19T04:18:55.495Z,34.40
2022-11-19T04:19:55.474Z,31.30
2022-11-19T04:20:55.446Z,32.70
2022-11-19T04:21:55.420Z,31.20
2022-11-19T04:22:55.437Z,30.80
2022-11-19T04:23:55.370Z,32.00
2022-11-19T04:24:55.344Z,31.00
2022-11-19T04:25:55.325Z,31.60
2022-11-19T04:26:55.296Z,33.30
2022-11-19T04:27:55.263Z,34.20
2022-11-19T04:28:55.243Z,30.90
2022-11-19T04:29:55.222Z,31.10
2022-11-19T04:30:55.195Z,34.50
2022-11-19T04:31:55.166Z,33.40
2022-11-19T04:32:55.154Z,32.70
2022-11-19T04:33:55.115Z,31.60
2022-11-19T04:34:55.085Z,33.20
2022-11-19T04:35:55.063Z,31.90
2022-11-19T04:36:55.035Z,32.70
2022-11-19T04:37:55.003Z,30.90
2022-11-19T04:38:55.005Z,32.30
2022-11-19T04:39:54.953Z,32.80
2022-11-19T04:40:54.930Z,30.20
2022-11-19T04:41:54.904Z,34.30
2022-11-19T04:42:54.881Z,31.00
2022-11-19T04:43:54.848Z,31.60
2022-11-19T04:44:54.847Z,30.30
2022-11-19T04:45:54.803Z,30.80
2022-11-19T04:46:54.778Z,30.40
2022-11-19T04:47:54.751Z,28.70
2022-11-19T04:48:54.728Z,31.10
2022-11-19T04:49:54.698Z,31.40
2022-11-19T04:50:54.673Z,31.30
2022-11-19T04:51:54.649Z,32.00
2022-11-19T04:52:54.626Z,30.00
2022-11-19T04:53:54.598Z,29.80
2022-11-19T04:54:54.587Z,32.80
2022-11-19T04:55:54.540Z,28.90
2022-11-19T04:56:54.517Z,31.00
2022-11-19T04:57:54.491Z,31.70
2022-11-19T04:58:54.468Z,30.70
2022-11-19T04:59:54.442Z,28.70
2022-11-19T05:00:54.418Z,29.70
2022-11-19T05:01:54.453Z,30.50
2022-11-19T05:02:54.365Z,29.20
2022-11-19T05:03:54.339Z,33.90
2022-11-19T05:04:54.312Z,30.20
2022-11-19T05:05:54.285Z,29.30
2022-11-19T05:06:54.438Z,29.20
2022-11-19T05:07:54.231Z,31.40
2022-11-19T05:08:54.202Z,33.20
2022-11-19T05:09:54.182Z,30.20
2022-11-19T05:10:54.176Z,31.40
2022-11-19T05:11:54.130Z,27.90
2022-11-19T05:12:54.101Z,30.40
2022-11-19T05:13:54.078Z,31.00
2022-11-19T05:14:54.046Z,29.50
2022-11-19T05:15:54.024Z,30.70
2022-11-19T05:16:53.999Z,27.70
2022-11-19T05:17:53.976Z,29.60
2022-11-19T05:18:53.960Z,30.70
2022-11-19T05:19:53.919Z,31.40
2022-11-19T05:20:53.891Z,29.90
2022-11-19T05:21:53.870Z,27.60
2022-11-19T05:22:53.841Z,30.70
2022-11-19T05:23:53.820Z,29.10
2022-11-19T05:24:53.790Z,29.70
2022-11-19T05:25:53.770Z,29.30
2022-11-19T05:26:53.753Z,29.60
2022-11-19T05:27:53.717Z,31.00
2022-11-19T05:28:53.689Z,30.70
2022-11-19T05:29:53.661Z,29.40
2022-11-19T05:30:53.638Z,30.40
2022-11-19T05:31:53.607Z,29.20
2022-11-19T05:32:53.579Z,27.90
2022-11-19T05:33:53.557Z,31.10
2022-11-19T05:34:53.528Z,28.70
2022-11-19T05:35:53.505Z,29.60
2022-11-19T05:36:53.478Z,28.90
2022-11-19T05:37:53.454Z,28.00
2022-11-19T05:38:53.422Z,31.10
2022-11-19T05:39:53.401Z,29.20
2022-11-19T05:40:53.371Z,28.60
2022-11-19T05:41:53.349Z,30.80
2022-11-19T05:42:53.342Z,29.30
2022-11-19T05:43:53.297Z,31.20
2022-11-19T05:44:53.267Z,27.70
2022-11-19T05:45:53.243Z,34.00
2022-11-19T05:46:53.216Z,27.40
2022-11-19T05:47:53.197Z,30.60
2022-11-19T05:48:53.161Z,31.10
2022-11-19T05:49:53.139Z,28.90
2022-11-19T05:50:53.109Z,29.60
2022-11-19T05:51:53.088Z,29.20
2022-11-19T05:52:53.055Z,30.00
2022-11-19T05:53:53.128Z,26.80
2022-11-19T05:54:53.004Z,27.80
2022-11-19T05:55:52.985Z,30.50
2022-11-19T05:56:52.959Z,28.10
2022-11-19T05:57:52.932Z,25.60
2022-11-19T05:58:52.926Z,24.50
2022-11-19T05:59:52.874Z,26.80
2022-11-19T06:00:52.854Z,27.30
2022-11-19T06:01:52.827Z,24.50
2022-11-19T06:02:52.849Z,27.30
2022-11-19T06:03:52.771Z,28.70
2022-11-19T06:04:52.745Z,26.30
2022-11-19T06:05:52.722Z,25.10
2022-11-19T06:06:52.690Z,26.10
2022-11-19T06:07:52.664Z,23.90
2022-11-19T06:08:52.640Z,27.90
2022-11-19T06:09:52.617Z,23.40
2022-11-19T06:10:52.592Z,23.50
2022-11-19T06:11:52.563Z,24.10
2022-11-19T06:12:52.530Z,24.30
2022-11-19T06:13:52.514Z,25.50
2022-11-19T06:14:52.496Z,23.60
2022-11-19T06:15:52.458Z,24.00
2022-11-19T06:16:52.428Z,23.60
2022-11-19T06:17:52.405Z,22.20
2022-11-19T06:18:52.376Z,24.40
2022-11-19T06:19:52.352Z,25.10
2022-11-19T06:20:52.321Z,22.30
2022-11-19T06:21:52.293Z,24.60
2022-11-19T06:22:52.267Z,22.60
2022-11-19T06:23:52.247Z,22.90
2022-11-19T06:24:52.216Z,21.30
2022-11-19T06:25:52.192Z,23.50
2022-11-19T06:26:52.160Z,21.10
2022-11-19T06:27:52.143Z,21.70
2022-11-19T06:28:52.112Z,22.00
2022-11-19T06:29:56.116Z,22.10
2022-11-19T06:30:52.072Z,22.90
2022-11-19T06:31:52.030Z,22.20
2022-11-19T06:32:52.000Z,21.50
2022-11-19T06:33:51.979Z,23.00
2022-11-19T06:34:51.953Z,23.60
2022-11-19T06:35:51.926Z,22.40
2022-11-19T06:36:51.893Z,21.50
2022-11-19T06:37:51.876Z,20.70
2022-11-19T06:38:51.839Z,21.20
2022-11-19T06:39:51.818Z,21.90
2022-11-19T06:40:51.788Z,19.50
2022-11-19T06:41:51.768Z,20.40
2022-11-19T06:42:51.733Z,20.60
2022-11-19T06:43:51.711Z,23.00
2022-11-19T06:44:51.678Z,19.80
2022-11-19T06:45:51.657Z,19.80
2022-11-19T06:46:51.648Z,21.50
2022-11-19T06:47:51.607Z,19.30
2022-11-19T06:48:51.577Z,20.50
2022-11-19T06:49:51.554Z,22.50
2022-11-19T06:50:51.532Z,20.30
2022-11-19T06:51:51.495Z,20.00
2022-11-19T06:52:51.468Z,19.30
2022-11-19T06:53:51.438Z,19.90
2022-11-19T06:54:51.410Z,19.90
2022-11-19T06:55:51.389Z,18.00
2022-11-19T06:56:51.364Z,18.30
2022-11-19T06:57:51.338Z,18.40
2022-11-19T06:58:51.306Z,20.40
2022-11-19T06:59:51.280Z,22.10
2022-11-19T07:00:51.254Z,19.30
2022-11-19T07:01:51.291Z,19.20
2022-11-19T07:02:51.221Z,19.10
2022-11-19T07:03:51.174Z,19.40
2022-11-19T07:04:51.145Z,18.10
2022-11-19T07:05:51.119Z,18.40
2022-11-19T07:06:51.090Z,18.30
2022-11-19T07:07:51.064Z,19.70
2022-11-19T07:08:51.038Z,17.00
2022-11-19T07:09:51.010Z,18.60
2022-11-19T07:10:50.982Z,17.70
2022-11-19T07:11:50.964Z,17.30
2022-11-19T07:12:50.938Z,16.70
2022-11-19T07:13:50.928Z,17.30
2022-11-19T07:14:50.875Z,18.00
2022-11-19T07:15:50.848Z,17.70
2022-11-19T07:16:50.824Z,17.90
2022-11-19T07:17:50.807Z,17.90
2022-11-19T07:18:50.787Z,16.40
2022-11-19T07:19:50.751Z,17.10
2022-11-19T07:20:50.715Z,17.10
2022-11-19T07:21:50.694Z,17.80
2022-11-19T07:22:53.702Z,16.70
2022-11-19T07:23:50.636Z,16.80
2022-11-19T07:24:50.615Z,15.70
2022-11-19T07:25:50.590Z,17.00
2022-11-19T07:26:50.556Z,15.80
2022-11-19T07:27:50.533Z,16.20
2022-11-19T07:28:50.504Z,16.20
2022-11-19T07:29:50.480Z,14.80
2022-11-19T07:30:50.450Z,16.10
2022-11-19T07:31:50.434Z,16.80
2022-11-19T07:32:50.391Z,16.60
2022-11-19T07:33:50.368Z,16.40
2022-11-19T07:34:50.477Z,17.50
2022-11-19T07:35:50.319Z,15.90
2022-11-19T07:36:50.306Z,16.20
2022-11-19T07:37:50.264Z,17.50
2022-11-19T07:38:50.238Z,16.30
2022-11-19T07:39:50.210Z,15.40
2022-11-19T07:40:50.180Z,15.30
2022-11-19T07:41:50.152Z,15.30
2022-11-19T07:42:50.150Z,15.00
2022-11-19T07:43:50.112Z,16.30
2022-11-19T07:44:54.610Z,15.20
2022-11-19T07:45:50.055Z,15.80
2022-11-19T07:46:50.025Z,14.30
2022-11-19T07:47:49.999Z,14.60
2022-11-19T07:48:49.965Z,15.30
2022-11-19T07:49:49.946Z,15.50
2022-11-19T07:50:55.140Z,14.60
2022-11-19T07:51:49.899Z,15.20
2022-11-19T07:52:49.864Z,15.10
2022-11-19T07:53:49.839Z,15.20
2022-11-19T07:54:49.810Z,14.50
2022-11-19T07:55:49.780Z,13.90
2022-11-19T07:56:49.757Z,16.90
2022-11-19T07:57:49.735Z,14.90
2022-11-19T07:58:49.703Z,15.30
2022-11-19T07:59:49.680Z,14.70
2022-11-19T08:00:49.649Z,16.30
2022-11-19T08:01:49.670Z,13.70
2022-11-19T08:02:49.597Z,15.10
2022-11-19T08:03:54.702Z,12.20
2022-11-19T08:04:49.550Z,14.30
2022-11-19T08:05:49.519Z,13.40
2022-11-19T08:06:49.510Z,13.60
2022-11-19T08:07:49.474Z,13.90
2022-11-19T08:08:49.449Z,14.90
2022-11-19T08:09:49.423Z,14.60
2022-11-19T08:10:49.388Z,13.60
2022-11-19T08:11:49.366Z,13.20
2022-11-19T08:12:49.353Z,14.20
2022-11-19T08:13:49.316Z,13.60
2022-11-19T08:14:49.290Z,14.50
2022-11-19T08:15:49.261Z,14.60
2022-11-19T08:16:49.241Z,14.80
2022-11-19T08:17:49.216Z,13.50
2022-11-19T08:18:49.186Z,12.80
2022-11-19T08:19:49.158Z,18.20
2022-11-19T08:20:49.148Z,13.90
2022-11-19T08:21:49.112Z,13.70
2022-11-19T08:22:49.098Z,13.60
2022-11-19T08:23:49.064Z,17.40
2022-11-19T08:24:49.032Z,13.80
2022-11-19T08:25:49.008Z,12.80
2022-11-19T08:26:48.989Z,12.30
2022-11-19T08:27:48.957Z,13.80
2022-11-19T08:28:48.928Z,13.90
2022-11-19T08:29:48.906Z,14.30
2022-11-19T08:30:48.886Z,12.60
2022-11-19T08:31:48.866Z,13.00
2022-11-19T08:32:48.827Z,13.10
2022-11-19T08:33:48.809Z,12.20
2022-11-19T08:34:48.780Z,14.10
2022-11-19T08:35:48.760Z,13.10
2022-11-19T08:36:48.732Z,13.80
2022-11-19T08:37:48.712Z,13.80
2022-11-19T08:38:48.702Z,12.10
2022-11-19T08:39:48.662Z,13.80
2022-11-19T08:40:48.643Z,14.30
2022-11-19T08:41:48.616Z,13.50
2022-11-19T08:42:48.593Z,14.10
2022-11-19T08:43:48.571Z,13.90
2022-11-19T08:44:48.557Z,13.10
2022-11-19T08:45:48.532Z,11.70
2022-11-19T08:46:48.520Z,12.00
2022-11-19T08:47:48.493Z,12.20
2022-11-19T08:48:48.472Z,11.70
2022-11-19T08:49:48.455Z,12.90
2022-11-19T08:50:48.428Z,13.10
2022-11-19T08:51:48.418Z,12.20
2022-11-19T08:52:48.394Z,12.10
2022-11-19T08:53:48.393Z,11.70
2022-11-19T08:54:48.375Z,12.60
2022-11-19T08:55:48.345Z,11.10
2022-11-19T08:56:48.330Z,10.60
2022-11-19T08:57:48.314Z,11.00
2022-11-19T08:58:48.289Z,11.60
2022-11-19T08:59:48.275Z,10.00
2022-11-19T09:00:48.355Z,11.80
2022-11-19T09:01:48.245Z,10.90
2022-11-19T09:02:48.228Z,11.10
2022-11-19T09:03:48.215Z,15.60
2022-11-19T09:04:48.193Z,14.40
2022-11-19T09:05:48.184Z,13.40
2022-11-19T09:06:48.184Z,11.80
2022-11-19T09:07:48.156Z,12.30
2022-11-19T09:08:48.138Z,11.80
2022-11-19T09:09:48.127Z,10.60
2022-11-19T09:10:48.136Z,11.70
2022-11-19T09:11:48.096Z,10.90
2022-11-19T09:12:48.074Z,12.00
2022-11-19T09:13:48.068Z,11.60
2022-11-19T09:14:48.043Z,11.80
2022-11-19T09:15:48.037Z,11.70
2022-11-19T09:16:48.022Z,11.10
2022-11-19T09:17:48.015Z,10.60
2022-11-19T09:18:47.991Z,11.10
2022-11-19T09:19:47.977Z,11.60
2022-11-19T09:20:47.967Z,11.10
2022-11-19T09:21:47.946Z,11.40
2022-11-19T09:22:47.938Z,11.90
2022-11-19T09:23:47.925Z,11.50
2022-11-19T09:24:47.907Z,12.00
2022-11-19T09:25:47.895Z,12.80
2022-11-19T09:26:52.606Z,10.80
2022-11-19T09:27:47.872Z,11.30
2022-11-19T09:28:47.857Z,10.60
2022-11-19T09:29:47.843Z,10.50
2022-11-19T09:30:47.832Z,10.60
2022-11-19T09:31:47.812Z,10.50
2022-11-19T09:32:47.806Z,11.20
2022-11-19T09:33:47.792Z,11.00
2022-11-19T09:34:47.788Z,10.50
2022-11-19T09:35:47.761Z,9.50
2022-11-19T09:36:47.755Z,12.00
2022-11-19T09:37:47.734Z,11.20
2022-11-19T09:38:47.721Z,10.00
2022-11-19T09:39:47.705Z,9.60
2022-11-19T09:40:47.696Z,9.90
2022-11-19T09:41:47.701Z,10.40
2022-11-19T09:42:47.689Z,10.30
2022-11-19T09:43:47.654Z,10.70
2022-11-19T09:44:47.643Z,10.50
2022-11-19T09:45:47.626Z,11.50
2022-11-19T09:46:47.615Z,11.80
2022-11-19T09:47:47.597Z,9.10
2022-11-19T09:48:47.598Z,9.60
2022-11-19T09:49:47.572Z,9.30
2022-11-19T09:50:51.946Z,9.80
2022-11-19T09:51:47.547Z,10.00
2022-11-19T09:52:47.530Z,9.60
2022-11-19T09:53:47.515Z,10.20
2022-11-19T09:54:47.501Z,10.10
2022-11-19T09:55:47.487Z,9.20
2022-11-19T09:56:47.476Z,11.70
2022-11-19T09:57:47.458Z,11.20
2022-11-19T09:58:47.478Z,9.40
2022-11-19T09:59:47.430Z,10.40
2022-11-19T10:00:47.439Z,9.20
2022-11-19T10:01:47.401Z,9.80
2022-11-19T10:02:47.443Z,9.50
2022-11-19T10:03:47.375Z,9.60
2022-11-19T10:04:47.361Z,10.50
2022-11-19T10:05:47.356Z,10.00
2022-11-19T10:06:47.340Z,8.70
2022-11-19T10:07:47.320Z,9.80
2022-11-19T10:08:47.316Z,9.00
2022-11-19T10:09:47.291Z,9.40
2022-11-19T10:10:47.285Z,10.10
2022-11-19T10:11:47.261Z,8.70
2022-11-19T10:12:47.261Z,8.40
2022-11-19T10:13:47.235Z,8.20
2022-11-19T10:14:47.244Z,10.90
2022-11-19T10:15:47.203Z,9.40
2022-11-19T10:16:47.214Z,10.20
2022-11-19T10:17:47.178Z,10.50
2022-11-19T10:18:47.166Z,11.60
2022-11-19T10:19:47.155Z,9.40
2022-11-19T10:20:47.145Z,8.40
2022-11-19T10:21:47.115Z,8.40
2022-11-19T10:22:47.103Z,9.30
2022-11-19T10:23:47.087Z,8.40
2022-11-19T10:24:47.069Z,9.80
2022-11-19T10:25:47.058Z,8.30
2022-11-19T10:26:47.042Z,8.70
2022-11-19T10:27:47.025Z,9.30
2022-11-19T10:28:47.011Z,8.50
2022-11-19T10:29:46.993Z,8.80
2022-11-19T10:30:47.010Z,8.40
2022-11-19T10:31:46.965Z,9.80
2022-11-19T10:32:46.948Z,8.60
2022-11-19T10:33:46.938Z,8.30
2022-11-19T10:34:46.919Z,8.40
2022-11-19T10:35:46.900Z,8.40
2022-11-19T10:36:46.886Z,8.40
2022-11-19T10:37:46.871Z,8.80
2022-11-19T10:38:51.057Z,8.40
2022-11-19T10:39:46.840Z,8.30
2022-11-19T10:40:46.824Z,11.30
2022-11-19T10:41:46.807Z,8.80
2022-11-19T10:42:46.796Z,8.50
2022-11-19T10:43:46.774Z,8.10
2022-11-19T10:44:46.766Z,8.40
2022-11-19T10:45:46.741Z,7.30
2022-11-19T10:46:46.751Z,7.00
2022-11-19T10:47:46.713Z,7.70
2022-11-19T10:48:46.699Z,8.20
2022-11-19T10:49:46.679Z,8.70
2022-11-19T10:50:46.683Z,7.50
2022-11-19T10:51:46.649Z,7.80
2022-11-19T10:52:46.635Z,8.20
2022-11-19T10:53:46.621Z,8.40
2022-11-19T10:54:46.602Z,9.60
2022-11-19T10:55:50.112Z,7.60
2022-11-19T10:56:46.574Z,9.10
2022-11-19T10:57:46.552Z,7.80
2022-11-19T10:58:46.552Z,7.80
2022-11-19T10:59:46.527Z,8.50
2022-11-19T11:00:46.554Z,8.40
2022-11-19T11:01:46.491Z,7.40
2022-11-19T11:02:46.488Z,8.00
2022-11-19T11:03:46.458Z,8.00
2022-11-19T11:04:46.445Z,8.20
2022-11-19T11:05:46.430Z,7.20
2022-11-19T11:06:46.418Z,8.00
2022-11-19T11:07:50.119Z,8.80
2022-11-19T11:08:46.384Z,9.30
2022-11-19T11:09:46.366Z,7.60
2022-11-19T11:10:46.352Z,7.80
2022-11-19T11:11:46.335Z,7.80
2022-11-19T11:12:46.324Z,7.20
2022-11-19T11:13:46.305Z,7.10
2022-11-19T11:14:46.289Z,9.00
2022-11-19T11:15:46.273Z,7.50
2022-11-19T11:16:46.260Z,8.30
2022-11-19T11:17:46.239Z,7.40
2022-11-19T11:18:46.286Z,8.40
2022-11-19T11:19:46.204Z,7.90
2022-11-19T11:20:46.192Z,8.00
2022-11-19T11:21:46.174Z,6.90
2022-11-19T11:22:46.159Z,8.50
2022-11-19T11:23:46.137Z,8.20
2022-11-19T11:24:46.125Z,8.90
2022-11-19T11:25:46.107Z,7.20
2022-11-19T11:26:46.088Z,7.10
2022-11-19T11:27:46.069Z,6.60
2022-11-19T11:28:46.057Z,7.40
2022-11-19T11:29:46.036Z,7.20
2022-11-19T11:30:46.022Z,6.50
2022-11-19T11:31:46.000Z,9.50
2022-11-19T11:32:45.995Z,9.70
2022-11-19T11:33:45.968Z,9.80
2022-11-19T11:34:45.975Z,8.30
2022-11-19T11:35:45.931Z,9.00
2022-11-19T11:36:45.934Z,7.90
2022-11-19T11:37:45.898Z,7.20
2022-11-19T11:38:45.888Z,8.40
2022-11-19T11:39:45.859Z,7.90
2022-11-19T11:40:45.850Z,8.80
2022-11-19T11:42:45.812Z,7.70
2022-11-19T11:43:45.805Z,7.70
2022-11-19T11:44:45.802Z,6.60
2022-11-19T11:45:45.764Z,7.00
2022-11-19T11:46:45.758Z,8.10
2022-11-19T11:47:45.726Z,7.00
2022-11-19T11:48:45.709Z,6.80
2022-11-19T11:49:45.700Z,6.50
2022-11-19T11:50:45.688Z,6.40
2022-11-19T11:51:45.658Z,8.30
2022-11-19T11:52:45.639Z,7.30
2022-11-19T11:53:45.625Z,7.70
2022-11-19T11:54:45.610Z,6.30
2022-11-19T11:55:45.595Z,6.80
2022-11-19T11:56:45.598Z,5.90
2022-11-19T11:57:45.553Z,5.90
2022-11-19T11:58:45.544Z,6.50
2022-11-19T11:59:45.520Z,6.60
2022-11-19T12:00:45.506Z,6.80
2022-11-19T12:01:45.486Z,7.10
2022-11-19T12:02:45.501Z,8.60
2022-11-19T12:03:54.922Z,7.10
2022-11-19T12:04:45.435Z,7.10
2022-11-19T12:05:45.429Z,6.00
2022-11-19T12:06:45.418Z,6.20
2022-11-19T12:07:45.396Z,6.50
2022-11-19T12:08:45.370Z,7.40
2022-11-19T12:09:45.354Z,7.60
2022-11-19T12:10:45.334Z,9.00
2022-11-19T12:11:45.314Z,6.50
2022-11-19T12:12:45.299Z,7.30
2022-11-19T12:13:45.298Z,6.90
2022-11-19T12:14:45.274Z,6.80
2022-11-19T12:15:45.245Z,7.40
2022-11-19T12:16:45.238Z,8.40
2022-11-19T12:17:45.215Z,9.70
2022-11-19T12:18:45.209Z,8.60
2022-11-19T12:19:45.181Z,7.70
2022-11-19T12:20:45.168Z,8.10
2022-11-19T12:21:45.148Z,6.50
2022-11-19T12:22:45.144Z,7.50
2022-11-19T12:23:45.111Z,7.40
2022-11-19T12:24:45.101Z,5.90
2022-11-19T12:25:45.080Z,6.00
2022-11-19T12:26:45.068Z,6.00
2022-11-19T12:27:45.046Z,6.40
2022-11-19T12:28:45.034Z,6.00
2022-11-19T12:29:45.016Z,6.10
2022-11-19T12:30:45.003Z,6.20
2022-11-19T12:31:44.977Z,6.30
2022-11-19T12:32:44.968Z,5.90
2022-11-19T12:33:44.947Z,6.10
2022-11-19T12:34:44.943Z,6.80
2022-11-19T12:35:44.913Z,6.00
2022-11-19T12:36:44.899Z,6.00
2022-11-19T12:37:44.880Z,5.80
2022-11-19T12:38:44.887Z,5.30
2022-11-19T12:39:44.849Z,6.20
2022-11-19T12:40:44.847Z,7.30
2022-11-19T12:41:44.815Z,6.90
2022-11-19T12:42:44.800Z,6.90
2022-11-19T12:43:44.777Z,6.60
2022-11-19T12:44:44.765Z,6.00
2022-11-19T12:45:44.745Z,6.40
2022-11-19T12:46:44.739Z,5.60
2022-11-19T12:47:45.287Z,7.00
2022-11-19T12:48:44.704Z,6.50
2022-11-19T12:49:44.676Z,6.70
2022-11-19T12:50:44.669Z,5.50
2022-11-19T12:51:44.645Z,5.50
2022-11-19T12:52:44.649Z,5.60
2022-11-19T12:53:44.617Z,40.30
2022-11-19T12:54:44.628Z,26.80
2022-11-19T12:55:44.577Z,7.10
2022-11-19T12:56:44.558Z,7.80
2022-11-19T12:57:44.546Z,9.30
2022-11-19T12:58:44.521Z,7.70